createdAt,value
2018-06-10T00:01:45.412Z,18.20
2018-06-10T00:04:16.882Z,18.10
2018-06-10T00:06:47.127Z,18.10
2018-06-10T00:09:19.737Z,18.00
2018-06-10T00:11:50.594Z,17.90
2018-06-10T00:14:21.001Z,17.90
2018-06-10T00:16:51.796Z,17.80
2018-06-10T00:19:22.984Z,17.80
2018-06-10T00:21:53.632Z,17.70
2018-06-10T00:24:23.983Z,17.70
2018-06-10T00:26:53.978Z,17.60
2018-06-10T00:29:24.785Z,17.60
2018-06-10T00:31:55.754Z,17.60
2018-06-10T00:34:26.488Z,17.50
2018-06-10T00:36:56.755Z,17.50
2018-06-10T00:39:27.128Z,17.40
2018-06-10T00:41:57.484Z,17.40
2018-06-10T00:44:27.983Z,17.40
2018-06-10T00:46:58.340Z,17.30
2018-06-10T00:49:28.493Z,17.30
2018-06-10T00:51:58.801Z,17.30
2018-06-10T00:54:30.533Z,17.20
2018-06-10T00:57:00.765Z,17.20
2018-06-10T00:59:31.298Z,17.20
2018-06-10T01:02:01.826Z,17.10
2018-06-10T01:04:32.322Z,17.10
2018-06-10T01:07:03.734Z,17.00
2018-06-10T01:09:34.188Z,17.00
2018-06-10T01:12:04.548Z,17.00
2018-06-10T01:14:34.685Z,16.90
2018-06-10T01:17:06.131Z,16.90
2018-06-10T01:19:37.476Z,16.90
2018-06-10T01:22:09.633Z,16.80
2018-06-10T01:24:41.457Z,16.80
2018-06-10T01:27:12.625Z,16.80
2018-06-10T01:29:43.285Z,16.70
2018-06-10T01:32:14.641Z,16.70
2018-06-10T01:34:45.209Z,16.70
2018-06-10T01:37:15.113Z,16.60
2018-06-10T01:39:45.684Z,16.60
2018-06-10T01:42:17.337Z,16.60
2018-06-10T01:44:48.198Z,16.50
2018-06-10T01:47:18.372Z,16.50
2018-06-10T01:49:50.086Z,16.50
2018-06-10T01:52:20.302Z,16.50
2018-06-10T01:54:50.468Z,16.40
2018-06-10T01:57:27.103Z,16.40
2018-06-10T01:59:57.788Z,16.40
2018-06-10T02:02:28.692Z,16.40
2018-06-10T02:04:58.870Z,16.30
2018-06-10T02:07:29.065Z,16.30
2018-06-10T02:09:59.194Z,16.30
2018-06-10T02:12:29.547Z,16.20
2018-06-10T02:14:59.709Z,16.20
2018-06-10T02:17:30.123Z,16.20
2018-06-10T02:20:00.426Z,16.10
2018-06-10T02:22:30.657Z,16.10
2018-06-10T02:25:01.381Z,16.10
2018-06-10T02:27:31.883Z,16.10
2018-06-10T02:30:02.039Z,16.10
2018-06-10T02:32:32.214Z,16.00
2018-06-10T02:35:03.306Z,16.00
2018-06-10T02:37:33.514Z,16.00
2018-06-10T02:40:03.786Z,16.00
2018-06-10T02:42:33.935Z,15.90
2018-06-10T02:45:04.481Z,15.90
2018-06-10T02:47:34.816Z,15.90
2018-06-10T02:50:05.473Z,15.80
2018-06-10T02:52:35.701Z,15.80
2018-06-10T02:55:06.221Z,15.80
2018-06-10T02:57:36.689Z,15.80
2018-06-10T03:00:06.768Z,15.80
2018-06-10T03:02:37.814Z,15.80
2018-06-10T03:05:08.193Z,15.80
2018-06-10T03:07:38.619Z,15.70
2018-06-10T03:10:08.790Z,15.70
2018-06-10T03:12:46.192Z,15.70
2018-06-10T03:15:16.313Z,15.70
2018-06-10T03:17:47.006Z,15.60
2018-06-10T03:20:17.036Z,15.60
2018-06-10T03:22:47.727Z,15.60
2018-06-10T03:25:18.148Z,15.60
2018-06-10T03:27:48.478Z,15.60
2018-06-10T03:30:18.608Z,15.50
2018-06-10T03:32:48.946Z,15.50
2018-06-10T03:35:19.414Z,15.50
2018-06-10T03:37:53.718Z,15.50
2018-06-10T03:40:23.916Z,15.50
2018-06-10T03:42:54.612Z,15.50
2018-06-10T03:45:24.937Z,15.40
2018-06-10T03:47:55.064Z,15.40
2018-06-10T03:50:25.357Z,15.40
2018-06-10T03:52:55.897Z,15.40
2018-06-10T03:55:26.122Z,15.40
2018-06-10T03:57:56.357Z,15.40
2018-06-10T04:00:26.482Z,15.40
2018-06-10T04:02:57.924Z,15.40
2018-06-10T04:05:28.266Z,15.40
2018-06-10T04:07:58.706Z,15.40
2018-06-10T04:10:29.047Z,15.40
2018-06-10T04:12:59.361Z,15.30
2018-06-10T04:15:29.317Z,15.40
2018-06-10T04:18:00.287Z,15.30
2018-06-10T04:20:32.286Z,15.30
2018-06-10T04:23:02.625Z,15.30
2018-06-10T04:25:32.956Z,15.40
2018-06-10T04:28:05.736Z,15.40
2018-06-10T04:30:36.518Z,15.40
2018-06-10T04:33:06.838Z,15.40
2018-06-10T04:35:37.525Z,15.40
2018-06-10T04:38:08.577Z,15.40
2018-06-10T04:40:39.042Z,15.50
2018-06-10T04:43:09.427Z,15.50
2018-06-10T04:45:40.544Z,15.50
2018-06-10T04:48:10.668Z,15.50
2018-06-10T04:50:41.033Z,15.60
2018-06-10T04:53:11.992Z,15.60
2018-06-10T04:55:42.426Z,15.60
2018-06-10T04:58:12.475Z,15.60
2018-06-10T05:00:43.115Z,15.60
2018-06-10T05:03:13.501Z,15.70
2018-06-10T05:05:45.775Z,15.70
2018-06-10T05:08:16.097Z,15.70
2018-06-10T05:10:46.913Z,15.80
2018-06-10T05:13:18.630Z,15.80
2018-06-10T05:15:49.320Z,15.80
2018-06-10T05:18:20.030Z,15.90
2018-06-10T05:20:50.589Z,15.90
2018-06-10T05:23:20.671Z,16.00
2018-06-10T05:25:50.792Z,16.00
2018-06-10T05:28:21.463Z,16.00
2018-06-10T05:30:53.271Z,16.10
2018-06-10T05:33:23.681Z,16.10
2018-06-10T05:35:54.276Z,16.20
2018-06-10T05:38:24.974Z,16.20
2018-06-10T05:40:55.572Z,16.30
2018-06-10T05:43:26.097Z,16.30
2018-06-10T05:45:56.834Z,16.40
2018-06-10T05:48:27.691Z,16.50
2018-06-10T05:50:57.802Z,16.50
2018-06-10T05:53:28.109Z,16.60
2018-06-10T05:55:58.310Z,16.60
2018-06-10T05:58:29.585Z,16.70
2018-06-10T06:01:00.027Z,16.80
2018-06-10T06:03:30.746Z,16.90
2018-06-10T06:06:01.488Z,17.00
2018-06-10T06:08:32.831Z,17.10
2018-06-10T06:11:03.493Z,17.20
2018-06-10T06:13:34.661Z,17.20
2018-06-10T06:16:05.282Z,17.30
2018-06-10T06:18:35.562Z,17.40
2018-06-10T06:21:06.290Z,17.50
2018-06-10T06:23:37.994Z,17.60
2018-06-10T06:26:09.337Z,17.70
2018-06-10T06:28:39.693Z,17.90
2018-06-10T06:31:10.703Z,18.00
2018-06-10T06:33:41.842Z,18.20
2018-06-10T06:36:12.279Z,18.30
2018-06-10T06:38:42.467Z,18.50
2018-06-10T06:41:14.628Z,18.60
2018-06-10T06:43:45.124Z,18.80
2018-06-10T06:46:16.298Z,18.90
2018-06-10T06:48:46.506Z,19.00
2018-06-10T06:51:17.605Z,19.10
2018-06-10T06:53:48.305Z,19.10
2018-06-10T06:56:18.422Z,19.10
2018-06-10T06:58:48.506Z,19.30
2018-06-10T07:01:19.101Z,19.40
2018-06-10T07:03:49.399Z,19.50
2018-06-10T07:06:20.150Z,19.60
2018-06-10T07:08:51.350Z,19.60
2018-06-10T07:11:21.876Z,19.70
2018-06-10T07:13:52.125Z,19.80
2018-06-10T07:16:22.848Z,19.90
2018-06-10T07:18:53.621Z,20.10
2018-06-10T07:21:23.942Z,20.20
2018-06-10T07:23:54.344Z,20.30
2018-06-10T07:26:26.657Z,20.40
2018-06-10T07:28:57.025Z,20.50
2018-06-10T07:31:27.352Z,20.60
2018-06-10T07:33:57.614Z,20.60
2018-06-10T07:36:27.648Z,20.70
2018-06-10T07:38:58.066Z,20.80
2018-06-10T07:41:28.285Z,20.90
2018-06-10T07:43:59.301Z,21.00
2018-06-10T07:46:29.753Z,21.20
2018-06-10T07:49:00.017Z,21.30
2018-06-10T07:58:34.717Z,21.70
2018-06-10T08:01:04.843Z,21.80
2018-06-10T08:03:35.330Z,22.00
2018-06-10T08:06:06.357Z,22.10
2018-06-10T08:08:36.987Z,22.20
2018-06-10T08:11:07.788Z,22.30
2018-06-10T08:13:38.572Z,22.40
2018-06-10T08:16:08.969Z,22.60
2018-06-10T08:18:39.015Z,22.90
2018-06-10T08:21:09.284Z,23.20
2018-06-10T08:23:39.474Z,23.40
2018-06-10T08:26:09.729Z,23.60
2018-06-10T08:28:40.693Z,23.80
2018-06-10T08:31:11.472Z,23.70
2018-06-10T08:33:41.879Z,24.10
2018-06-10T08:36:14.033Z,24.30
2018-06-10T08:38:44.083Z,24.50
2018-06-10T08:41:14.596Z,24.60
2018-06-10T08:43:44.856Z,24.70
2018-06-10T08:46:15.130Z,24.80
2018-06-10T08:48:46.009Z,24.80
2018-06-10T08:51:16.378Z,24.90
2018-06-10T08:53:46.591Z,24.90
2018-06-10T08:56:17.588Z,24.90
2018-06-10T08:58:48.655Z,24.90
2018-06-10T09:01:19.322Z,24.90
2018-06-10T09:03:49.848Z,24.80
2018-06-10T09:06:20.252Z,24.80
2018-06-10T09:08:50.325Z,24.90
2018-06-10T09:11:20.897Z,25.00
2018-06-10T09:13:50.941Z,25.10
2018-06-10T09:16:22.184Z,25.20
2018-06-10T09:18:55.168Z,25.30
2018-06-10T09:21:28.495Z,25.40
2018-06-10T09:23:58.850Z,25.60
2018-06-10T09:26:29.117Z,25.60
2018-06-10T09:28:59.855Z,25.60
2018-06-10T09:31:31.430Z,25.60
2018-06-10T09:34:02.495Z,25.60
2018-06-10T09:36:33.084Z,25.60
2018-06-10T09:39:04.088Z,25.50
2018-06-10T09:41:34.780Z,25.50
2018-06-10T09:44:06.197Z,25.50
2018-06-10T09:46:36.631Z,25.50
2018-06-10T09:49:08.746Z,25.30
2018-06-10T09:51:43.181Z,25.10
2018-06-10T09:54:13.890Z,25.00
2018-06-10T09:56:45.295Z,24.90
2018-06-10T09:59:15.823Z,24.90
2018-06-10T10:01:47.098Z,24.80
2018-06-10T10:04:18.119Z,24.70
2018-06-10T10:06:49.099Z,24.70
2018-06-10T10:09:19.889Z,24.70
2018-06-10T10:11:50.806Z,24.80
2018-06-10T10:14:21.388Z,24.90
2018-06-10T10:16:52.405Z,25.00
2018-06-10T10:19:26.754Z,25.00
2018-06-10T10:21:59.646Z,25.10
2018-06-10T10:24:37.680Z,25.20
2018-06-10T10:27:11.297Z,25.40
2018-06-10T10:29:44.700Z,25.60
2018-06-10T10:32:17.158Z,25.70
2018-06-10T10:34:53.995Z,25.80
2018-06-10T10:37:29.745Z,25.90
2018-06-10T10:40:03.400Z,26.00
2018-06-10T10:42:35.884Z,25.90
2018-06-10T10:45:11.544Z,25.90
2018-06-10T10:47:42.112Z,25.90
2018-06-10T10:50:12.831Z,25.90
2018-06-10T10:52:44.506Z,26.00
2018-06-10T10:55:14.520Z,26.10
2018-06-10T10:57:51.631Z,26.10
2018-06-10T11:00:21.987Z,26.10
2018-06-10T11:02:52.735Z,26.20
2018-06-10T11:05:23.995Z,26.10
2018-06-10T11:07:55.396Z,25.90
2018-06-10T11:10:26.378Z,25.80
2018-06-10T11:12:57.143Z,25.80
2018-06-10T11:15:28.164Z,25.80
2018-06-10T11:17:59.287Z,25.70
2018-06-10T11:20:29.802Z,25.70
2018-06-10T11:23:00.448Z,25.60
2018-06-10T11:25:31.896Z,25.70
2018-06-10T11:28:02.424Z,25.80
2018-06-10T11:30:34.203Z,25.90
2018-06-10T11:33:05.523Z,26.00
2018-06-10T11:35:36.366Z,26.00
2018-06-10T11:38:07.022Z,26.10
2018-06-10T11:40:37.604Z,26.20
2018-06-10T11:43:09.434Z,26.30
2018-06-10T11:45:39.964Z,26.50
2018-06-10T11:48:10.381Z,26.60
2018-06-10T11:50:40.945Z,26.70
2018-06-10T11:53:12.092Z,26.80
2018-06-10T11:55:42.977Z,26.90
2018-06-10T11:58:14.068Z,26.90
2018-06-10T12:00:44.603Z,26.90
2018-06-10T12:03:15.670Z,26.90
2018-06-10T12:05:47.095Z,27.00
2018-06-10T12:08:17.889Z,27.00
2018-06-10T12:10:48.732Z,26.90
2018-06-10T12:13:27.792Z,26.80
2018-06-10T12:16:08.376Z,26.80
2018-06-10T12:18:46.465Z,26.80
2018-06-10T12:21:20.118Z,26.70
2018-06-10T12:24:00.122Z,26.70
2018-06-10T12:26:35.267Z,26.70
2018-06-10T12:29:12.663Z,26.80
2018-06-10T12:31:46.253Z,26.90
2018-06-10T12:34:20.136Z,27.00
2018-06-10T12:36:57.748Z,27.10
2018-06-10T12:39:34.273Z,27.10
2018-06-10T12:42:17.249Z,27.10
2018-06-10T12:44:52.287Z,27.10
2018-06-10T12:47:28.128Z,27.10
2018-06-10T12:49:59.036Z,27.20
2018-06-10T12:52:30.839Z,27.40
2018-06-10T12:55:01.693Z,27.50
2018-06-10T12:57:32.027Z,27.50
2018-06-10T13:00:03.007Z,27.40
2018-06-10T13:02:33.929Z,27.50
2018-06-10T13:05:04.127Z,27.70
2018-06-10T13:07:35.542Z,27.80
2018-06-10T13:10:06.905Z,28.00
2018-06-10T13:12:37.872Z,28.20
2018-06-10T13:15:08.931Z,28.30
2018-06-10T13:17:40.557Z,28.50
2018-06-10T13:20:11.959Z,28.70
2018-06-10T13:22:43.664Z,28.80
2018-06-10T13:25:14.402Z,28.90
2018-06-10T13:27:45.415Z,29.10
2018-06-10T13:30:16.804Z,29.20
2018-06-10T13:32:47.502Z,29.40
2018-06-10T13:35:17.959Z,29.50
2018-06-10T13:37:49.180Z,29.60
2018-06-10T13:40:20.253Z,29.70
2018-06-10T13:42:52.196Z,29.80
2018-06-10T13:45:23.593Z,30.00
2018-06-10T13:47:55.313Z,30.30
2018-06-10T13:50:27.597Z,30.70
2018-06-10T13:53:01.232Z,31.10
2018-06-10T13:55:32.805Z,31.60
2018-06-10T13:58:03.410Z,31.90
2018-06-10T14:00:34.352Z,32.10
2018-06-10T14:03:05.903Z,32.40
2018-06-10T14:05:37.588Z,32.60
2018-06-10T14:08:08.452Z,32.90
2018-06-10T14:10:41.103Z,33.30
2018-06-10T14:13:11.947Z,33.70
2018-06-10T14:15:42.977Z,34.20
2018-06-10T14:18:16.075Z,34.80
2018-06-10T14:20:49.625Z,35.30
2018-06-10T14:23:21.044Z,35.90
2018-06-10T14:25:52.285Z,36.80
2018-06-10T14:28:22.647Z,38.00
2018-06-10T14:30:54.246Z,39.00
2018-06-10T14:33:24.544Z,39.70
2018-06-10T14:35:55.685Z,40.50
2018-06-10T14:38:26.012Z,41.30
2018-06-10T14:40:56.499Z,42.00
2018-06-10T14:43:27.882Z,42.50
2018-06-10T14:45:58.068Z,42.80
2018-06-10T14:48:29.739Z,42.90
2018-06-10T14:51:00.964Z,43.00
2018-06-10T14:53:31.980Z,43.50
2018-06-10T14:56:02.666Z,44.20
2018-06-10T14:58:33.972Z,44.90
2018-06-10T15:01:04.834Z,45.30
2018-06-10T15:03:35.504Z,45.80
2018-06-10T15:06:06.448Z,46.20
2018-06-10T15:08:37.140Z,46.50
2018-06-10T15:11:08.581Z,46.60
2018-06-10T15:13:39.822Z,46.70
2018-06-10T15:16:11.076Z,46.90
2018-06-10T15:18:41.854Z,46.80
2018-06-10T15:21:12.556Z,46.50
2018-06-10T15:23:43.701Z,45.90
2018-06-10T15:26:14.760Z,45.30
2018-06-10T15:28:46.329Z,44.70
2018-06-10T15:31:17.266Z,44.20
2018-06-10T15:33:48.071Z,43.90
2018-06-10T15:36:19.377Z,43.50
2018-06-10T15:38:50.058Z,43.10
2018-06-10T15:41:20.870Z,42.80
2018-06-10T15:43:52.015Z,42.90
2018-06-10T15:46:22.546Z,42.80
2018-06-10T15:48:53.031Z,42.40
2018-06-10T15:51:23.958Z,42.00
2018-06-10T15:53:55.289Z,41.70
2018-06-10T15:56:26.584Z,41.60
2018-06-10T15:58:57.236Z,41.60
2018-06-10T16:01:28.691Z,41.60
2018-06-10T16:03:59.709Z,41.60
2018-06-10T16:06:30.795Z,41.60
2018-06-10T16:09:01.046Z,41.70
2018-06-10T16:11:31.747Z,41.90
2018-06-10T16:14:02.966Z,42.20
2018-06-10T16:16:34.792Z,42.30
2018-06-10T16:19:07.167Z,42.60
2018-06-10T16:21:38.782Z,42.80
2018-06-10T16:24:10.065Z,42.80
2018-06-10T16:26:43.050Z,42.80
2018-06-10T16:29:13.677Z,42.70
2018-06-10T16:31:45.605Z,42.60
2018-06-10T16:34:15.707Z,42.60
2018-06-10T16:36:46.398Z,42.80
2018-06-10T16:39:16.831Z,43.00
2018-06-10T16:41:47.458Z,43.10
2018-06-10T16:44:17.907Z,43.10
2018-06-10T16:46:48.165Z,43.10
2018-06-10T16:49:18.901Z,43.20
2018-06-10T16:51:49.805Z,43.10
2018-06-10T16:54:20.271Z,42.80
2018-06-10T16:56:52.050Z,42.50
2018-06-10T16:59:23.316Z,42.30
2018-06-10T17:01:53.887Z,42.30
2018-06-10T17:04:25.245Z,42.30
2018-06-10T17:06:56.062Z,42.30
2018-06-10T17:09:26.682Z,42.30
2018-06-10T17:11:57.285Z,42.20
2018-06-10T17:14:27.504Z,42.20
2018-06-10T17:16:58.111Z,42.20
2018-06-10T17:19:28.716Z,42.10
2018-06-10T17:21:59.003Z,42.10
2018-06-10T17:24:30.263Z,42.00
2018-06-10T17:27:00.826Z,42.00
2018-06-10T17:29:32.690Z,41.90
2018-06-10T17:32:03.933Z,42.00
2018-06-10T17:34:34.200Z,42.10
2018-06-10T17:37:05.043Z,42.30
2018-06-10T17:39:35.361Z,42.50
2018-06-10T17:42:07.024Z,42.70
2018-06-10T17:44:38.191Z,42.70
2018-06-10T17:47:08.949Z,42.60
2018-06-10T17:49:40.097Z,42.60
2018-06-10T17:52:10.593Z,42.40
2018-06-10T17:54:40.739Z,42.20
2018-06-10T17:57:11.227Z,41.70
2018-06-10T17:59:42.006Z,41.70
2018-06-10T18:02:12.392Z,41.60
2018-06-10T18:04:43.328Z,41.50
2018-06-10T18:07:13.698Z,41.30
2018-06-10T18:09:43.926Z,41.10
2018-06-10T18:12:14.855Z,41.00
2018-06-10T18:14:45.179Z,41.00
2018-06-10T18:17:15.424Z,41.00
2018-06-10T18:19:45.807Z,40.90
2018-06-10T18:22:16.267Z,40.80
2018-06-10T18:24:46.682Z,40.70
2018-06-10T18:27:16.991Z,40.80
2018-06-10T18:29:48.009Z,40.90
2018-06-10T18:32:19.132Z,41.00
2018-06-10T18:34:49.498Z,40.90
2018-06-10T18:37:19.822Z,40.80
2018-06-10T18:39:50.536Z,40.50
2018-06-10T18:42:21.113Z,40.30
2018-06-10T18:44:52.212Z,40.20
2018-06-10T18:47:23.792Z,40.10
2018-06-10T18:49:54.334Z,39.90
2018-06-10T18:52:24.608Z,39.60
2018-06-10T18:54:55.753Z,39.20
2018-06-10T18:57:26.109Z,39.10
2018-06-10T18:59:57.402Z,38.90
2018-06-10T19:02:30.489Z,38.80
2018-06-10T19:05:01.978Z,38.60
2018-06-10T19:07:32.167Z,38.10
2018-06-10T19:10:02.525Z,37.50
2018-06-10T19:12:32.519Z,36.80
2018-06-10T19:15:03.433Z,36.30
2018-06-10T19:17:36.155Z,35.80
2018-06-10T19:20:07.059Z,35.40
2018-06-10T19:22:37.212Z,34.80
2018-06-10T19:25:10.243Z,34.30
2018-06-10T19:27:40.680Z,33.80
2018-06-10T19:30:11.004Z,33.40
2018-06-10T19:32:41.048Z,32.90
2018-06-10T19:35:12.772Z,32.50
2018-06-10T19:37:44.545Z,32.10
2018-06-10T19:40:15.082Z,31.70
2018-06-10T19:42:45.892Z,31.30
2018-06-10T19:45:15.927Z,30.90
2018-06-10T19:47:46.343Z,30.60
2018-06-10T19:50:16.905Z,30.30
2018-06-10T19:52:47.313Z,30.00
2018-06-10T19:55:18.337Z,29.70
2018-06-10T19:57:48.926Z,29.40
2018-06-10T20:00:19.155Z,29.10
2018-06-10T20:02:49.267Z,28.90
2018-06-10T20:05:20.075Z,28.60
2018-06-10T20:07:50.425Z,28.40
2018-06-10T20:10:21.125Z,28.20
2018-06-10T20:12:51.388Z,28.00
2018-06-10T20:15:22.613Z,27.70
2018-06-10T20:17:52.856Z,27.50
2018-06-10T20:20:23.418Z,27.30
2018-06-10T20:22:54.084Z,27.00
2018-06-10T20:25:24.983Z,26.80
2018-06-10T20:27:55.280Z,26.60
2018-06-10T20:30:25.537Z,26.40
2018-06-10T20:32:56.089Z,26.10
2018-06-10T20:35:26.174Z,25.90
2018-06-10T20:37:56.519Z,25.60
2018-06-10T20:40:27.594Z,25.40
2018-06-10T20:42:58.324Z,25.20
2018-06-10T20:45:32.049Z,25.00
2018-06-10T20:48:02.474Z,24.70
2018-06-10T20:50:32.833Z,24.50
2018-06-10T20:53:04.392Z,24.30
2018-06-10T20:55:35.412Z,24.10
2018-06-10T20:58:06.189Z,24.00
2018-06-10T21:00:36.403Z,23.80
2018-06-10T21:03:09.152Z,23.60
2018-06-10T21:05:40.237Z,23.50
2018-06-10T21:08:10.833Z,23.30
2018-06-10T21:10:42.576Z,23.10
2018-06-10T21:13:13.791Z,23.00
2018-06-10T21:15:45.580Z,22.90
2018-06-10T21:18:17.508Z,22.80
2018-06-10T21:20:50.356Z,22.70
2018-06-10T21:23:20.493Z,22.50
2018-06-10T21:25:51.003Z,22.40
2018-06-10T21:28:22.262Z,22.30
2018-06-10T21:30:53.289Z,22.20
2018-06-10T21:33:23.669Z,22.10
2018-06-10T21:35:53.744Z,21.90
2018-06-10T21:38:23.946Z,21.80
2018-06-10T21:40:54.274Z,21.70
2018-06-10T21:43:24.577Z,21.60
2018-06-10T21:45:55.148Z,21.50
2018-06-10T21:48:25.279Z,21.40
2018-06-10T21:50:55.374Z,21.30
2018-06-10T21:53:26.407Z,21.20
2018-06-10T21:55:57.629Z,21.10
2018-06-10T21:58:27.889Z,21.00
2018-06-10T22:00:59.202Z,20.90
2018-06-10T22:03:29.580Z,20.90
2018-06-10T22:06:00.090Z,20.80
2018-06-10T22:08:30.718Z,20.70
2018-06-10T22:11:02.600Z,20.60
2018-06-10T22:13:32.826Z,20.60
2018-06-10T22:16:03.454Z,20.50
2018-06-10T22:18:33.661Z,20.40
2018-06-10T22:21:04.557Z,20.00
2018-06-10T22:23:34.953Z,20.30
2018-06-10T22:26:05.756Z,20.20
2018-06-10T22:28:37.870Z,20.10
2018-06-10T22:31:08.548Z,20.00
2018-06-10T22:33:38.575Z,20.00
2018-06-10T22:36:08.893Z,19.90
2018-06-10T22:38:39.041Z,19.80
2018-06-10T22:41:09.473Z,19.70
2018-06-10T22:43:39.938Z,19.60
2018-06-10T22:46:10.043Z,19.60
2018-06-10T22:48:41.828Z,19.50
2018-06-10T22:51:13.483Z,19.50
2018-06-10T22:55:08.961Z,19.40
2018-06-10T22:57:39.605Z,19.20
2018-06-10T23:00:10.138Z,19.10
2018-06-10T23:02:41.132Z,19.10
2018-06-10T23:05:11.633Z,19.00
2018-06-10T23:07:43.618Z,18.90
2018-06-10T23:10:14.289Z,18.90
2018-06-10T23:12:44.764Z,18.80
2018-06-10T23:15:14.905Z,18.70
2018-06-10T23:17:46.054Z,18.70
2018-06-10T23:20:16.270Z,18.60
2018-06-10T23:22:48.625Z,18.60
2018-06-10T23:25:25.944Z,18.50
2018-06-10T23:27:56.511Z,18.50
2018-06-10T23:30:27.193Z,18.40
2018-06-10T23:32:57.676Z,18.40
2018-06-10T23:35:28.764Z,18.30
2018-06-10T23:37:59.323Z,18.30
2018-06-10T23:40:29.449Z,18.20
2018-06-10T23:43:06.447Z,18.20
2018-06-10T23:45:36.845Z,18.10
2018-06-10T23:48:07.425Z,18.10
2018-06-10T23:50:38.477Z,18.00
2018-06-10T23:53:09.536Z,18.00
2018-06-10T23:55:39.751Z,17.90
2018-06-10T23:58:09.975Z,17.90
